Time;durP1;ratioP1;P1;durP2;ratioP2;P2;SDS_P1;SDS_P2;PMS_P1;PMS_P2;Temp;Humidity;BMP_temperature;BMP_pressure;BME280_temperature;BME280_humidity;BME280_pressure;Samples;Min_cycle;Max_cycle;Signal;HPM_P1;HPM_P2
2022/01/18 00:00:47;;;;;;;42.55;5.85;;;7.20;99.90;;;;;;5043858;28;20056;-58
2022/01/18 00:03:14;;;;;;;32.90;6.30;;;7.20;99.90;;;;;;5048545;28;20037;-58
2022/01/18 00:05:45;;;;;;;42.85;5.78;;;7.20;99.90;;;;;;5046864;28;20045;-58
2022/01/18 00:08:11;;;;;;;45.78;6.38;;;7.20;99.90;;;;;;5049120;28;20041;-56
2022/01/18 00:10:37;;;;;;;40.83;7.95;;;7.20;99.90;;;;;;5046412;28;20198;-58
2022/01/18 00:15:53;;;;;;;31.45;5.63;;;7.20;99.90;;;;;;5029227;28;20041;-58
2022/01/18 00:18:19;;;;;;;34.30;6.00;;;7.30;99.90;;;;;;5029413;28;20430;-58
2022/01/18 00:20:55;;;;;;;40.05;7.38;;;7.30;99.90;;;;;;5027830;28;20084;-57
2022/01/18 00:23:21;;;;;;;39.90;6.43;;;7.30;99.90;;;;;;5033333;28;20068;-57
2022/01/18 00:25:51;;;;;;;;;;;7.30;99.90;;;;;;5048342;28;20114;-58
2022/01/18 00:28:17;;;;;;;36.78;5.97;;;7.30;99.90;;;;;;5048482;28;20340;-59
2022/01/18 00:36:25;;;;;;;39.25;6.25;;;7.30;99.90;;;;;;5048062;28;20052;-56
2022/01/18 00:38:50;;;;;;;37.55;6.50;;;7.30;99.90;;;;;;5048526;28;20480;-57
2022/01/18 00:41:19;;;;;;;39.27;6.13;;;7.30;99.90;;;;;;5047656;28;20044;-57
2022/01/18 00:43:45;;;;;;;40.65;6.45;;;7.30;99.90;;;;;;5048394;28;20108;-57
2022/01/18 00:46:12;;;;;;;51.97;6.00;;;7.30;99.90;;;;;;5048298;28;20136;-58
2022/01/18 00:48:38;;;;;;;51.08;8.48;;;7.30;99.90;;;;;;5048347;28;20106;-58
2022/01/18 00:51:09;;;;;;;39.80;5.38;;;7.30;99.90;;;;;;5046524;28;20029;-57
2022/01/18 00:53:37;;;;;;;47.72;6.78;;;7.30;99.90;;;;;;5048069;28;20502;-58
2022/01/18 00:56:17;;;;;;;41.50;7.93;;;7.30;99.90;;;;;;5048257;28;20175;-57
2022/01/18 00:58:44;;;;;;;56.25;9.20;;;7.30;99.90;;;;;;5038200;28;20532;-59
2022/01/18 01:01:11;;;;;;;37.55;7.93;;;7.30;99.90;;;;;;5047731;28;20044;-59
2022/01/18 01:03:37;;;;;;;32.83;6.38;;;7.30;99.90;;;;;;5048037;28;20042;-58
2022/01/18 01:06:05;;;;;;;39.88;7.93;;;7.30;99.90;;;;;;5049871;28;20123;-57
2022/01/18 01:08:31;;;;;;;41.17;7.80;;;7.30;99.90;;;;;;5052168;28;20029;-59
2022/01/18 01:10:57;;;;;;;40.07;7.80;;;7.30;99.90;;;;;;5052149;28;20561;-58
2022/01/18 01:13:24;;;;;;;47.22;6.53;;;7.30;99.90;;;;;;5052118;28;20036;-58
2022/01/18 01:16:19;;;;;;;46.97;7.85;;;7.30;99.90;;;;;;5051407;28;20120;-58
2022/01/18 01:19:05;;;;;;;49.60;8.05;;;7.30;99.90;;;;;;5052290;28;20079;-58
2022/01/18 01:35:31;;;;;;;41.80;9.20;;;7.30;99.90;;;;;;5051646;28;20041;-56
2022/01/18 01:43:37;;;;;;;45.70;7.65;;;7.30;99.90;;;;;;5051928;28;20449;-59
2022/01/18 01:46:04;;;;;;;54.70;7.68;;;7.30;99.90;;;;;;5051396;28;20425;-59
2022/01/18 01:48:29;;;;;;;49.72;9.60;;;7.30;99.90;;;;;;5050308;28;20045;-59
2022/01/18 01:51:03;;;;;;;47.55;8.73;;;7.20;99.90;;;;;;5051585;28;20037;-59
2022/01/18 01:53:31;;;;;;;36.30;6.75;;;7.30;99.90;;;;;;5051309;28;20037;-59
2022/01/18 01:55:57;;;;;;;44.15;9.00;;;7.20;99.90;;;;;;5051627;28;20468;-57
2022/01/18 01:58:25;;;;;;;34.28;6.18;;;7.20;99.90;;;;;;5057587;28;20041;-58
2022/01/18 02:00:53;;;;;;;35.92;8.23;;;7.20;99.90;;;;;;5056727;28;20064;-54
2022/01/18 02:03:19;;;;;;;50.40;7.38;;;7.20;99.90;;;;;;5051524;28;20045;-58
2022/01/18 02:05:45;;;;;;;42.70;7.95;;;7.20;99.90;;;;;;5051107;28;20049;-57
2022/01/18 02:08:13;;;;;;;50.38;5.85;;;7.10;99.90;;;;;;5051780;28;20493;-58
2022/01/18 02:10:39;;;;;;;48.65;9.77;;;7.10;99.90;;;;;;5050918;28;20083;-58
2022/01/18 02:13:06;;;;;;;40.63;6.00;;;7.20;99.90;;;;;;5051543;28;20029;-58
2022/01/18 02:15:37;;;;;;;37.13;6.88;;;7.10;99.90;;;;;;5049933;28;20025;-59
2022/01/18 02:23:31;;;;;;;41.22;6.63;;;7.10;99.90;;;;;;5050973;28;20041;-58
2022/01/18 02:25:58;;;;;;;29.63;5.60;;;7.10;99.90;;;;;;5050381;28;20509;-58
2022/01/18 02:28:25;;;;;;;;;;;7.10;99.90;;;;;;5049945;28;20037;-58
2022/01/18 02:30:51;;;;;;;33.08;4.90;;;7.10;99.90;;;;;;5050773;28;20007;-58
2022/01/18 02:33:17;;;;;;;36.45;5.13;;;7.10;99.90;;;;;;5051270;28;20086;-58
2022/01/18 02:35:44;;;;;;;29.10;5.18;;;7.00;99.90;;;;;;5048682;28;20052;-58
2022/01/18 02:38:10;;;;;;;35.85;6.35;;;7.00;99.90;;;;;;5050664;28;20421;-56
2022/01/18 02:40:36;;;;;;;37.65;5.63;;;7.00;99.90;;;;;;5050690;28;20119;-58
2022/01/18 02:45:55;;;;;;;42.25;6.88;;;7.00;99.90;;;;;;5050132;28;20045;-58
2022/01/18 02:48:21;;;;;;;36.03;5.25;;;7.00;99.90;;;;;;5032441;28;20037;-58
2022/01/18 02:50:47;;;;;;;34.70;5.78;;;7.00;99.90;;;;;;5051069;28;20386;-58
2022/01/18 02:53:13;;;;;;;40.05;5.95;;;6.90;99.90;;;;;;5050636;28;20045;-57
2022/01/18 02:55:40;;;;;;;34.47;6.85;;;7.00;99.90;;;;;;5049041;28;20090;-59
2022/01/18 02:58:09;;;;;;;39.72;7.35;;;7.00;99.90;;;;;;5050101;28;20525;-58
2022/01/18 03:03:24;;;;;;;39.58;8.48;;;6.90;99.90;;;;;;5050134;28;20045;-58
2022/01/18 03:05:49;;;;;;;39.38;8.00;;;6.90;99.90;;;;;;5049937;28;20064;-58
2022/01/18 03:08:16;;;;;;;43.90;8.40;;;6.90;99.90;;;;;;5049646;28;20028;-58
2022/01/18 03:10:41;;;;;;;38.70;8.55;;;6.90;99.90;;;;;;5049152;28;20064;-59
2022/01/18 03:13:07;;;;;;;43.93;9.50;;;6.90;99.90;;;;;;5050301;28;20033;-57
2022/01/18 03:15:34;;;;;;;50.65;10.90;;;6.80;99.90;;;;;;5049725;28;20041;-58
2022/01/18 03:18:04;;;;;;;33.45;7.03;;;6.80;99.90;;;;;;5049624;28;20551;-58
2022/01/18 03:20:30;;;;;;;44.33;8.88;;;6.80;99.90;;;;;;5049434;28;20497;-57
2022/01/18 03:22:56;;;;;;;39.33;7.63;;;6.70;99.90;;;;;;5048286;28;20053;-59
2022/01/18 03:25:28;;;;;;;46.85;8.27;;;6.80;99.90;;;;;;5047967;28;20406;-58
2022/01/18 03:28:05;;;;;;;34.70;7.00;;;6.70;99.90;;;;;;5049244;28;20044;-58
2022/01/18 03:30:36;;;;;;;39.58;7.30;;;6.70;99.90;;;;;;5047775;28;20076;-59
2022/01/18 03:33:04;;;;;;;40.88;7.80;;;6.70;99.90;;;;;;5047528;28;20120;-58
2022/01/18 03:35:30;;;;;;;47.35;7.65;;;6.70;99.90;;;;;;5047057;28;20063;-58
2022/01/18 03:37:56;;;;;;;33.45;7.18;;;6.70;99.90;;;;;;5048940;28;20120;-58
2022/01/18 03:40:22;;;;;;;35.10;7.13;;;6.70;99.90;;;;;;5049672;28;20112;-57
2022/01/18 03:42:48;;;;;;;41.20;8.48;;;6.70;99.90;;;;;;5049391;28;20060;-57
2022/01/18 03:45:18;;;;;;;36.50;8.85;;;6.70;99.90;;;;;;5049090;28;20537;-59
2022/01/18 03:47:45;;;;;;;40.05;8.43;;;6.70;99.90;;;;;;5049138;28;20220;-58
2022/01/18 03:50:12;;;;;;;35.50;7.82;;;6.70;99.90;;;;;;5049716;28;20549;-58
2022/01/18 03:52:39;;;;;;;33.08;8.25;;;6.60;99.90;;;;;;5049223;28;20044;-59
2022/01/18 03:55:07;;;;;;;36.28;8.23;;;6.70;99.90;;;;;;5047962;28;20436;-59
2022/01/18 03:57:33;;;;;;;28.70;7.13;;;6.70;99.90;;;;;;5047578;28;20513;-58
2022/01/18 03:59:58;;;;;;;31.80;7.13;;;6.60;99.90;;;;;;5049413;28;20033;-58
2022/01/18 04:02:25;;;;;;;42.17;8.37;;;6.60;99.90;;;;;;5048806;28;20062;-57
2022/01/18 04:04:50;;;;;;;34.60;7.70;;;6.60;99.90;;;;;;5048825;28;20083;-58
2022/01/18 04:07:16;;;;;;;43.50;9.20;;;6.60;99.90;;;;;;5049261;28;20497;-58
2022/01/18 04:09:42;;;;;;;39.20;7.80;;;6.60;99.90;;;;;;5049508;28;20385;-58
2022/01/18 04:12:08;;;;;;;42.03;9.10;;;6.60;99.90;;;;;;5048892;28;20040;-58
2022/01/18 04:14:33;;;;;;;36.70;7.70;;;6.60;99.90;;;;;;5049151;28;20636;-56
2022/01/18 04:17:10;;;;;;;39.57;7.50;;;6.60;99.90;;;;;;5048759;28;20041;-58
2022/01/18 04:27:37;;;;;;;31.33;6.50;;;6.60;99.90;;;;;;5048840;28;20045;-57
2022/01/18 04:30:05;;;;;;;26.08;6.43;;;6.60;99.90;;;;;;5048113;28;20048;-58
2022/01/18 04:32:30;;;;;;;31.00;6.03;;;6.60;99.90;;;;;;5038304;28;20032;-57
2022/01/18 04:34:57;;;;;;;21.83;5.95;;;6.50;99.90;;;;;;5046803;28;20036;-59
2022/01/18 04:37:22;;;;;;;35.30;6.70;;;6.50;99.90;;;;;;5049130;28;20044;-58
2022/01/18 04:39:48;;;;;;;41.83;7.13;;;6.50;99.90;;;;;;5046995;28;20533;-57
2022/01/18 04:42:29;;;;;;;29.00;7.25;;;6.50;99.90;;;;;;5048706;28;20033;-58
2022/01/18 04:50:23;;;;;;;27.50;6.68;;;6.50;99.90;;;;;;5047940;28;20049;-59
2022/01/18 04:52:49;;;;;;;37.97;7.37;;;6.50;99.90;;;;;;5047397;28;20352;-57
2022/01/18 04:55:17;;;;;;;25.93;6.37;;;6.50;99.90;;;;;;5047340;28;20076;-58
2022/01/18 04:57:52;;;;;;;29.95;6.18;;;6.50;99.90;;;;;;5030355;28;20037;-59
2022/01/18 05:00:22;;;;;;;38.55;7.43;;;6.50;99.90;;;;;;5048186;28;20068;-58
2022/01/18 05:02:49;;;;;;;28.08;6.95;;;6.50;99.90;;;;;;5048803;28;20120;-59
2022/01/18 05:05:23;;;;;;;22.92;6.65;;;6.50;99.90;;;;;;5047353;28;20056;-58
2022/01/18 05:07:52;;;;;;;22.42;5.78;;;6.50;99.90;;;;;;5053753;28;20041;-57
2022/01/18 05:10:20;;;;;;;31.38;6.63;;;6.50;99.90;;;;;;5040599;28;20044;-59
2022/01/18 05:12:48;;;;;;;33.65;6.05;;;6.50;99.90;;;;;;5048566;28;20094;-58
2022/01/18 05:23:12;;;;;;;25.52;5.65;;;6.50;99.90;;;;;;5047896;28;20041;-58
2022/01/18 05:25:38;;;;;;;34.93;6.60;;;6.50;99.90;;;;;;5048366;28;20045;-59
2022/01/18 05:28:06;;;;;;;32.87;5.40;;;6.50;99.90;;;;;;5048256;28;20104;-58
2022/01/18 05:30:32;;;;;;;29.60;5.55;;;6.50;99.90;;;;;;5047882;28;20490;-59
2022/01/18 05:32:58;;;;;;;25.88;5.30;;;6.50;99.90;;;;;;5047923;28;20128;-59
2022/01/18 05:35:24;;;;;;;27.10;4.75;;;6.50;99.90;;;;;;5047623;28;20043;-59
2022/01/18 05:37:50;;;;;;;26.50;5.93;;;6.50;99.90;;;;;;5047951;28;20538;-58
2022/01/18 05:40:17;;;;;;;22.15;4.25;;;6.50;99.90;;;;;;5047518;28;20041;-58
2022/01/18 05:42:44;;;;;;;21.55;4.72;;;6.50;99.90;;;;;;5047696;28;20051;-59
2022/01/18 05:45:10;;;;;;;28.83;7.22;;;6.50;99.90;;;;;;5046881;28;20561;-58
2022/01/18 05:47:38;;;;;;;31.17;5.03;;;6.50;99.90;;;;;;5047907;28;20041;-58
2022/01/18 05:50:05;;;;;;;23.88;4.38;;;6.50;99.90;;;;;;5047217;28;20037;-57
2022/01/18 05:52:31;;;;;;;31.48;5.10;;;6.50;99.90;;;;;;5050621;28;20326;-58
2022/01/18 05:54:56;;;;;;;26.10;5.13;;;6.50;99.90;;;;;;5051208;28;20463;-59
2022/01/18 05:57:22;;;;;;;18.60;4.97;;;6.50;99.90;;;;;;5051159;28;20450;-58
2022/01/18 05:59:49;;;;;;;28.97;4.63;;;6.40;99.90;;;;;;5051433;28;20037;-59
2022/01/18 06:02:32;;;;;;;19.10;4.70;;;6.50;99.90;;;;;;5051003;28;20045;-58
2022/01/18 06:07:42;;;;;;;17.75;4.68;;;6.50;99.90;;;;;;5050833;28;20486;-58
2022/01/18 06:10:08;;;;;;;27.80;4.63;;;6.50;99.90;;;;;;5050688;28;20041;-59
2022/01/18 06:12:33;;;;;;;21.35;4.38;;;6.50;99.90;;;;;;5049904;28;20518;-59
2022/01/18 06:15:00;;;;;;;29.90;5.80;;;6.50;99.90;;;;;;5051164;28;20115;-58
2022/01/18 06:17:25;;;;;;;22.33;4.60;;;6.50;99.90;;;;;;5050111;28;20079;-58
2022/01/18 06:19:51;;;;;;;24.08;4.78;;;6.50;99.90;;;;;;5051093;28;20029;-56
2022/01/18 06:22:17;;;;;;;25.10;4.60;;;6.50;99.90;;;;;;5050904;28;20037;-58
2022/01/18 06:24:43;;;;;;;15.45;4.03;;;6.50;99.90;;;;;;5049598;28;20552;-58
2022/01/18 06:27:09;;;;;;;25.67;5.63;;;6.50;99.90;;;;;;5051292;28;20037;-59
2022/01/18 06:29:36;;;;;;;18.95;4.45;;;6.50;99.90;;;;;;5050273;28;20044;-58
2022/01/18 06:32:03;;;;;;;28.10;4.65;;;6.50;99.90;;;;;;5050494;28;20041;-59
2022/01/18 06:34:29;;;;;;;27.35;5.03;;;6.50;99.90;;;;;;5049660;28;20037;-58
2022/01/18 06:36:55;;;;;;;18.42;5.22;;;6.50;99.90;;;;;;5049665;28;20060;-59
2022/01/18 06:39:20;;;;;;;22.93;4.37;;;6.50;99.90;;;;;;5050810;28;20049;-59
2022/01/18 06:41:46;;;;;;;23.17;4.65;;;6.40;99.90;;;;;;5033761;28;20080;-59
2022/01/18 06:44:13;;;;;;;17.23;4.60;;;6.50;99.90;;;;;;5042894;28;20116;-56
2022/01/18 06:46:38;;;;;;;28.08;6.03;;;6.50;99.90;;;;;;5050573;28;20044;-58
2022/01/18 06:49:05;;;;;;;28.50;4.80;;;6.50;99.90;;;;;;5050494;28;20028;-58
2022/01/18 06:51:31;;;;;;;31.42;6.65;;;6.50;99.90;;;;;;5050722;28;20091;-57
2022/01/18 06:53:57;;;;;;;17.65;4.07;;;6.50;99.90;;;;;;5065407;28;20041;-57
2022/01/18 06:56:23;;;;;;;29.23;5.70;;;6.50;99.90;;;;;;5049823;28;20037;-57
2022/01/18 06:58:48;;;;;;;15.00;4.50;;;6.50;99.90;;;;;;5051086;28;20063;-57
2022/01/18 07:01:14;;;;;;;24.33;5.33;;;6.40;99.90;;;;;;5039985;28;20041;-59
2022/01/18 07:03:41;;;;;;;25.75;4.95;;;6.40;99.90;;;;;;5029866;28;20503;-58
2022/01/18 07:06:07;;;;;;;24.55;4.70;;;6.50;99.90;;;;;;5033659;28;20047;-59
2022/01/18 07:08:34;;;;;;;22.38;5.22;;;6.50;99.90;;;;;;5050868;28;20488;-57
2022/01/18 07:11:01;;;;;;;25.58;5.95;;;6.40;99.90;;;;;;5050589;28;20072;-58
2022/01/18 07:13:27;;;;;;;27.38;5.55;;;6.40;99.90;;;;;;5050214;28;20032;-58
2022/01/18 07:15:52;;;;;;;18.33;4.20;;;6.40;99.90;;;;;;5041250;28;20041;-58
2022/01/18 07:18:18;;;;;;;21.63;4.63;;;6.40;99.90;;;;;;5039244;28;20041;-58
2022/01/18 07:20:45;;;;;;;17.40;3.77;;;6.40;99.90;;;;;;5034739;28;20124;-58
2022/01/18 07:23:14;;;;;;;19.05;5.38;;;6.40;99.90;;;;;;5064167;28;20053;-57
2022/01/18 07:25:43;;;;;;;26.75;5.82;;;6.30;99.90;;;;;;5050080;28;20044;-58
2022/01/18 07:28:10;;;;;;;32.15;5.95;;;6.30;99.90;;;;;;5050377;28;20041;-58
2022/01/18 07:30:36;;;;;;;21.15;5.05;;;6.40;99.90;;;;;;5049904;28;20132;-58
2022/01/18 07:33:03;;;;;;;24.35;7.05;;;6.40;99.90;;;;;;5047661;28;20040;-58
2022/01/18 07:35:28;;;;;;;;;;;6.30;99.90;;;;;;5048664;28;20041;-58
2022/01/18 07:37:56;;;;;;;22.08;5.75;;;6.30;99.90;;;;;;5049723;28;19916;-60
2022/01/18 07:40:22;;;;;;;26.70;5.45;;;6.30;99.90;;;;;;5050592;28;20037;-60
2022/01/18 07:42:47;;;;;;;24.17;5.67;;;6.20;99.90;;;;;;5049787;28;20445;-60
2022/01/18 07:45:13;;;;;;;26.57;4.70;;;6.20;99.90;;;;;;5049172;28;20025;-60
2022/01/18 07:47:39;;;;;;;25.35;6.15;;;6.20;99.90;;;;;;5048216;28;20041;-59
2022/01/18 07:50:05;;;;;;;18.80;5.13;;;6.20;99.90;;;;;;5042310;28;20556;-59
2022/01/18 07:52:32;;;;;;;31.95;8.15;;;6.20;99.90;;;;;;5043170;28;20040;-58
2022/01/18 07:54:58;;;;;;;20.10;5.97;;;6.20;99.90;;;;;;5044197;28;20036;-59
2022/01/18 07:57:23;;;;;;;20.03;6.07;;;6.20;99.90;;;;;;5048753;28;20036;-59
2022/01/18 07:59:49;;;;;;;18.43;6.57;;;6.20;99.90;;;;;;5046649;28;20044;-59
2022/01/18 08:02:14;;;;;;;25.17;6.83;;;6.20;99.90;;;;;;5048649;28;20091;-59
2022/01/18 08:04:40;;;;;;;21.98;5.25;;;6.20;99.90;;;;;;5048592;28;20041;-60
2022/01/18 08:07:06;;;;;;;12.93;5.07;;;6.20;99.90;;;;;;5045673;28;20044;-61
2022/01/18 08:09:32;;;;;;;;;;;6.20;99.90;;;;;;5047795;28;20037;-61
2022/01/18 08:11:57;;;;;;;39.33;6.95;;;6.20;99.90;;;;;;5050787;28;20340;-59
2022/01/18 08:14:26;;;;;;;24.10;5.17;;;6.20;99.90;;;;;;5055511;28;20041;-59
2022/01/18 08:17:00;;;;;;;26.80;5.97;;;6.20;99.90;;;;;;5050504;28;20079;-59
2022/01/18 08:19:30;;;;;;;22.33;6.03;;;6.20;99.90;;;;;;5045766;28;20039;-59
2022/01/18 08:21:56;;;;;;;20.05;5.65;;;6.20;99.90;;;;;;5047598;28;20067;-58
2022/01/18 08:24:22;;;;;;;;;;;6.20;99.90;;;;;;5050786;28;20045;-59
2022/01/18 08:26:48;;;;;;;24.17;5.63;;;6.20;99.90;;;;;;5056986;28;20002;-59
2022/01/18 08:29:14;;;;;;;17.25;5.43;;;6.20;99.90;;;;;;5062341;28;20101;-59
2022/01/18 08:31:45;;;;;;;15.13;5.55;;;6.20;99.90;;;;;;5053456;28;20116;-61
2022/01/18 08:34:11;;;;;;;31.25;7.10;;;6.20;99.90;;;;;;5059898;28;20505;-60
2022/01/18 08:36:37;;;;;;;27.55;6.32;;;6.20;99.90;;;;;;5050282;28;20048;-59
2022/01/18 08:39:04;;;;;;;23.40;5.70;;;6.20;99.90;;;;;;5050926;28;20076;-60
2022/01/18 08:41:31;;;;;;;25.67;7.90;;;6.20;99.90;;;;;;5047764;28;20055;-60
2022/01/18 08:43:57;;;;;;;20.25;5.65;;;6.20;99.90;;;;;;5053539;28;20044;-59
2022/01/18 08:46:23;;;;;;;19.85;6.13;;;6.20;99.90;;;;;;5051386;28;20360;-59
2022/01/18 08:48:49;;;;;;;25.13;6.32;;;6.20;99.90;;;;;;5044502;28;20115;-60
2022/01/18 08:51:14;;;;;;;33.05;8.63;;;6.30;99.90;;;;;;5048258;28;20041;-60
2022/01/18 08:53:40;;;;;;;27.90;6.88;;;6.20;99.90;;;;;;5038894;28;20049;-59
2022/01/18 08:56:06;;;;;;;30.70;8.48;;;6.20;99.90;;;;;;5019816;28;20052;-60
2022/01/18 08:58:34;;;;;;;28.37;7.17;;;6.30;99.90;;;;;;5048916;28;20378;-60
2022/01/18 09:01:01;;;;;;;30.75;8.02;;;6.30;99.90;;;;;;5052059;28;20048;-59
2022/01/18 09:03:26;;;;;;;23.02;7.93;;;6.30;99.90;;;;;;5050210;28;20696;-60
2022/01/18 09:05:52;;;;;;;38.03;8.30;;;6.30;99.90;;;;;;5055453;28;20033;-60
2022/01/18 09:08:19;;;;;;;27.97;9.13;;;6.30;99.90;;;;;;5057959;28;20037;-60
2022/01/18 09:10:47;;;;;;;22.52;8.05;;;6.30;99.90;;;;;;5053676;28;20310;-60
2022/01/18 09:13:14;;;;;;;28.27;8.90;;;6.30;99.90;;;;;;5058143;28;20040;-60
2022/01/18 09:15:40;;;;;;;30.67;8.80;;;6.40;99.90;;;;;;5055135;28;20437;-59
2022/01/18 09:18:05;;;;;;;29.15;8.63;;;6.30;99.90;;;;;;5057602;28;20033;-59
2022/01/18 09:20:31;;;;;;;25.73;8.47;;;6.40;99.90;;;;;;5057596;28;20518;-59
2022/01/18 09:22:57;;;;;;;24.02;7.45;;;6.40;99.90;;;;;;5058638;28;20041;-59
2022/01/18 09:25:26;;;;;;;22.17;7.20;;;6.40;99.90;;;;;;5058092;28;20036;-60
2022/01/18 09:27:53;;;;;;;23.27;7.70;;;6.40;99.90;;;;;;5059230;28;20041;-59
2022/01/18 09:30:19;;;;;;;18.98;6.72;;;6.40;99.90;;;;;;5058127;28;20048;-60
2022/01/18 09:32:47;;;;;;;16.77;7.60;;;6.40;99.90;;;;;;5064831;28;20048;-60
2022/01/18 09:35:14;;;;;;;20.40;7.55;;;6.40;99.90;;;;;;5062997;28;20041;-58
2022/01/18 09:37:40;;;;;;;23.80;7.60;;;6.40;99.90;;;;;;5058659;28;20067;-60
2022/01/18 09:40:06;;;;;;;24.83;7.55;;;6.40;99.90;;;;;;5056966;28;20428;-60
2022/01/18 09:42:35;;;;;;;22.05;8.55;;;6.40;99.90;;;;;;5064741;28;20041;-60
2022/01/18 09:45:21;;;;;;;28.85;8.02;;;6.40;99.90;;;;;;5062853;28;20455;-59
2022/01/18 09:47:50;;;;;;;21.20;6.95;;;6.40;99.90;;;;;;5059508;28;21282;-58
2022/01/18 09:50:21;;;;;;;18.60;8.75;;;6.50;99.90;;;;;;5059485;28;20044;-60
2022/01/18 09:52:52;;;;;;;21.33;6.95;;;6.50;99.90;;;;;;5061996;28;20040;-59
2022/01/18 09:55:18;;;;;;;19.88;6.60;;;6.50;99.90;;;;;;5056791;28;20107;-59
2022/01/18 09:57:44;;;;;;;26.60;7.55;;;6.50;99.90;;;;;;5064549;28;20119;-58
2022/01/18 10:00:10;;;;;;;22.47;7.33;;;6.50;99.90;;;;;;5061737;28;20540;-59
2022/01/18 10:02:35;;;;;;;28.85;8.15;;;6.50;99.90;;;;;;5059573;28;20314;-59
2022/01/18 10:05:25;;;;;;;23.73;9.43;;;6.50;99.90;;;;;;5061056;28;20441;-59
2022/01/18 10:08:01;;;;;;;24.00;8.20;;;6.50;99.90;;;;;;5060035;28;20328;-59
2022/01/18 10:10:35;;;;;;;26.48;9.88;;;6.60;99.90;;;;;;5058209;28;20029;-59
2022/01/18 10:13:01;;;;;;;31.50;11.60;;;6.60;99.90;;;;;;5062030;28;20468;-58
2022/01/18 10:15:26;;;;;;;27.93;10.57;;;6.50;99.90;;;;;;5060597;28;20106;-59
2022/01/18 10:18:06;;;;;;;26.93;11.30;;;6.50;99.90;;;;;;5063019;28;20111;-59
2022/01/18 10:20:32;;;;;;;29.50;12.80;;;6.50;99.90;;;;;;5058451;28;20429;-58
2022/01/18 10:23:00;;;;;;;29.35;10.50;;;6.60;99.90;;;;;;5062231;28;20029;-57
2022/01/18 10:25:28;;;;;;;21.20;10.02;;;6.60;99.90;;;;;;5055059;28;20061;-58
2022/01/18 10:27:55;;;;;;;24.60;11.77;;;6.60;99.90;;;;;;5057377;28;20502;-59
2022/01/18 10:30:35;;;;;;;34.17;13.05;;;6.60;99.90;;;;;;5056216;28;20464;-58
2022/01/18 10:33:13;;;;;;;25.80;12.80;;;6.60;99.90;;;;;;5055786;28;20029;-58
2022/01/18 10:36:04;;;;;;;30.77;13.13;;;6.60;99.90;;;;;;5056811;28;20460;-59
2022/01/18 10:38:30;;;;;;;30.85;12.93;;;6.60;99.90;;;;;;5053910;28;20476;-58
2022/01/18 10:40:56;;;;;;;28.77;13.13;;;6.60;99.90;;;;;;5054780;28;20114;-58
2022/01/18 10:43:30;;;;;;;25.73;12.03;;;6.60;99.90;;;;;;5052843;28;20549;-59
2022/01/18 10:46:12;;;;;;;26.80;12.60;;;6.60;99.90;;;;;;5053396;28;20319;-57
2022/01/18 10:48:48;;;;;;;21.55;11.52;;;6.60;99.90;;;;;;5055432;28;20132;-59
2022/01/18 10:51:28;;;;;;;24.05;11.25;;;6.60;99.90;;;;;;5054337;28;20056;-60
2022/01/18 10:53:58;;;;;;;23.75;10.75;;;6.60;99.90;;;;;;5054665;28;20044;-59
2022/01/18 10:56:24;;;;;;;25.95;12.25;;;6.70;99.90;;;;;;5055286;28;20040;-59
2022/01/18 10:59:00;;;;;;;20.92;11.75;;;6.70;99.90;;;;;;5054929;28;20546;-59
2022/01/18 11:01:26;;;;;;;24.95;10.98;;;6.70;99.90;;;;;;5052847;28;20037;-61
2022/01/18 11:04:11;;;;;;;22.83;11.43;;;6.70;99.90;;;;;;5053675;28;20119;-60
2022/01/18 11:06:39;;;;;;;20.92;9.77;;;6.70;99.90;;;;;;5054446;28;20390;-61
2022/01/18 11:09:13;;;;;;;22.30;9.25;;;6.70;99.90;;;;;;5054093;28;20077;-61
2022/01/18 11:11:46;;;;;;;21.73;8.82;;;6.80;99.90;;;;;;5056295;28;20033;-61
2022/01/18 11:14:17;;;;;;;15.13;6.32;;;6.80;99.90;;;;;;5058093;28;20266;-58
2022/01/18 11:16:44;;;;;;;15.90;6.65;;;6.80;99.90;;;;;;5066023;28;20102;-60
2022/01/18 11:21:49;;;;;;;17.02;7.68;;;6.80;99.90;;;;;;5054569;28;20451;-60
2022/01/18 11:24:16;;;;;;;18.42;8.35;;;6.80;99.90;;;;;;5050348;28;20037;-59
2022/01/18 11:26:44;;;;;;;14.85;7.15;;;6.80;99.90;;;;;;5057073;28;20045;-59
2022/01/18 11:29:11;;;;;;;13.73;6.90;;;6.90;99.90;;;;;;5059006;28;20048;-60
2022/01/18 11:31:37;;;;;;;16.02;6.72;;;6.90;99.90;;;;;;5058969;28;20068;-61
2022/01/18 11:34:05;;;;;;;;;;;6.90;99.90;;;;;;5063404;28;20024;-59
2022/01/18 11:36:39;;;;;;;13.60;6.57;;;6.90;99.90;;;;;;5058382;28;19920;-61
2022/01/18 11:39:11;;;;;;;10.93;5.85;;;6.90;99.90;;;;;;5056104;28;20059;-61
2022/01/18 11:41:37;;;;;;;18.13;6.43;;;6.90;99.90;;;;;;5054676;28;20040;-61
2022/01/18 11:44:17;;;;;;;14.77;6.38;;;6.90;99.90;;;;;;5057965;28;20032;-61
2022/01/18 11:46:52;;;;;;;11.55;5.60;;;6.90;99.90;;;;;;5058531;28;20040;-62
2022/01/18 11:49:30;;;;;;;10.60;5.03;;;6.90;99.90;;;;;;5051596;28;20039;-61
2022/01/18 11:52:00;;;;;;;13.38;5.72;;;6.90;99.90;;;;;;5063311;28;20409;-61
2022/01/18 11:57:24;;;;;;;13.05;5.32;;;6.90;99.90;;;;;;5060975;28;20096;-61
2022/01/18 11:59:51;;;;;;;25.73;6.85;;;6.90;99.90;;;;;;5058884;28;20048;-61
2022/01/18 12:02:28;;;;;;;13.43;5.65;;;7.00;99.90;;;;;;5056947;28;20560;-61
2022/01/18 12:04:56;;;;;;;12.18;4.55;;;7.00;99.90;;;;;;5055621;28;20287;-61
2022/01/18 12:07:34;;;;;;;10.98;4.20;;;7.00;99.90;;;;;;5059387;28;20052;-61
2022/01/18 12:10:06;;;;;;;10.75;4.80;;;7.00;99.90;;;;;;5057791;28;20048;-61
2022/01/18 12:12:41;;;;;;;11.52;4.80;;;7.00;99.90;;;;;;5056485;28;20036;-61
2022/01/18 12:15:15;;;;;;;8.38;4.40;;;7.00;99.90;;;;;;5056387;28;20109;-61
2022/01/18 12:18:12;;;;;;;11.90;5.03;;;7.10;99.90;;;;;;5035681;28;20460;-61
2022/01/18 12:20:38;;;;;;;11.27;3.58;;;7.10;99.90;;;;;;5031378;28;20267;-62
2022/01/18 12:23:24;;;;;;;8.70;3.25;;;7.00;99.90;;;;;;5043743;28;20426;-61
2022/01/18 12:26:14;;;;;;;13.45;3.88;;;7.00;99.90;;;;;;5040097;28;20135;-62
2022/01/18 12:34:29;;;;;;;6.05;3.53;;;7.00;99.90;;;;;;5045193;28;20182;-59
2022/01/18 12:37:21;;;;;;;10.63;5.25;;;7.00;99.90;;;;;;5043208;28;20040;-59
2022/01/18 12:39:50;;;;;;;10.90;3.17;;;7.00;99.90;;;;;;5044075;28;20044;-59
2022/01/18 12:45:06;;;;;;;;;;;7.00;99.90;;;;;;5044108;28;20041;-62
2022/01/18 12:47:35;;;;;;;10.73;3.78;;;7.00;99.90;;;;;;5043648;28;19921;-62
2022/01/18 12:50:06;;;;;;;12.52;2.80;;;7.00;99.90;;;;;;5043289;28;20089;-60
2022/01/18 12:53:11;;;;;;;13.00;3.15;;;7.00;99.90;;;;;;5059491;28;20508;-59
2022/01/18 12:55:52;;;;;;;9.98;2.85;;;7.00;99.90;;;;;;5056706;28;20044;-60
2022/01/18 12:58:53;;;;;;;15.18;3.35;;;7.00;99.90;;;;;;5062304;28;20536;-58
2022/01/18 13:01:24;;;;;;;14.70;3.22;;;7.00;99.90;;;;;;5008090;28;20045;-59
2022/01/18 13:03:56;;;;;;;12.57;3.60;;;6.90;99.90;;;;;;5042584;28;20497;-59
2022/01/18 13:06:24;;;;;;;9.40;2.55;;;6.90;99.90;;;;;;5052254;28;20375;-62
2022/01/18 13:08:54;;;;;;;8.65;2.85;;;6.90;99.90;;;;;;5059278;28;20056;-59
2022/01/18 13:11:21;;;;;;;11.30;4.00;;;6.90;99.90;;;;;;5053982;28;20077;-59
2022/01/18 13:14:01;;;;;;;10.13;2.78;;;6.90;99.90;;;;;;5057591;28;20036;-59
2022/01/18 13:25:00;;;;;;;13.88;2.97;;;6.80;99.90;;;;;;5057824;28;20313;-59
2022/01/18 13:27:31;;;;;;;7.97;3.10;;;6.80;99.90;;;;;;5054680;28;20118;-59
2022/01/18 13:30:17;;;;;;;7.00;2.97;;;6.80;99.90;;;;;;5045483;28;20043;-60
2022/01/18 13:32:44;;;;;;;5.05;1.55;;;6.80;99.90;;;;;;5055638;28;20036;-59
2022/01/18 13:35:11;;;;;;;11.38;2.17;;;6.80;99.90;;;;;;5062077;28;20044;-59
2022/01/18 13:37:38;;;;;;;6.07;1.83;;;6.80;99.90;;;;;;5061547;28;20390;-60
2022/01/18 13:40:11;;;;;;;17.40;3.42;;;6.80;99.90;;;;;;5061434;28;20045;-60
2022/01/18 13:42:46;;;;;;;16.33;2.67;;;6.80;99.90;;;;;;5051805;28;20052;-59
2022/01/18 13:45:27;;;;;;;11.65;3.20;;;6.80;99.90;;;;;;5047882;28;20405;-59
2022/01/18 13:47:55;;;;;;;11.52;3.70;;;6.80;99.90;;;;;;5057980;28;20048;-59
2022/01/18 13:50:34;;;;;;;11.13;3.05;;;6.80;99.90;;;;;;5050805;28;20040;-59
2022/01/18 13:53:03;;;;;;;16.15;3.80;;;6.80;99.90;;;;;;5050653;28;20028;-59
2022/01/18 13:55:30;;;;;;;9.27;2.53;;;6.80;99.90;;;;;;5049245;28;20041;-59
2022/01/18 13:57:57;;;;;;;14.55;3.78;;;6.80;99.90;;;;;;5050901;28;20533;-59
2022/01/18 14:00:27;;;;;;;12.27;2.38;;;6.80;99.90;;;;;;5050317;28;20041;-59
2022/01/18 14:02:53;;;;;;;14.68;2.78;;;6.80;99.90;;;;;;5046989;28;20508;-59
2022/01/18 14:05:21;;;;;;;11.30;2.47;;;6.90;99.90;;;;;;5049326;28;20033;-59
2022/01/18 14:08:10;;;;;;;10.18;2.38;;;6.80;99.90;;;;;;5050980;28;20056;-59
2022/01/18 14:10:36;;;;;;;13.20;3.35;;;6.80;99.90;;;;;;5048839;28;20032;-59
2022/01/18 14:13:02;;;;;;;15.70;2.50;;;6.80;99.90;;;;;;5051019;28;20385;-59
2022/01/18 14:15:43;;;;;;;14.27;3.72;;;6.80;99.90;;;;;;5054094;28;20113;-62
2022/01/18 14:18:10;;;;;;;14.45;3.05;;;6.80;99.90;;;;;;5048857;28;20502;-57
2022/01/18 14:20:36;;;;;;;10.63;3.30;;;6.70;99.90;;;;;;5055192;28;20497;-58
2022/01/18 14:23:03;;;;;;;12.75;2.97;;;6.70;99.90;;;;;;5058662;28;20024;-58